sensor_id;sensor_type;location;lat;lon;timestamp;temperature;humidity
44513;DHT22;30219;50.588;9.504;2022-07-24T00:00:35;16.30;99.90
44513;DHT22;30219;50.588;9.504;2022-07-24T00:03:01;16.20;99.90
44513;DHT22;30219;50.588;9.504;2022-07-24T00:05:26;16.10;99.90
44513;DHT22;30219;50.588;9.504;2022-07-24T00:07:52;16.10;99.90
44513;DHT22;30219;50.588;9.504;2022-07-24T00:10:18;16.10;99.90
44513;DHT22;30219;50.588;9.504;2022-07-24T00:12:43;16.10;99.90
44513;DHT22;30219;50.588;9.504;2022-07-24T00:15:09;15.80;99.90
44513;DHT22;30219;50.588;9.504;2022-07-24T00:17:35;15.60;99.90
44513;DHT22;30219;50.588;9.504;2022-07-24T00:20:00;15.50;99.90
44513;DHT22;30219;50.588;9.504;2022-07-24T00:22:26;15.50;99.90
44513;DHT22;30219;50.588;9.504;2022-07-24T00:24:52;15.60;99.90
44513;DHT22;30219;50.588;9.504;2022-07-24T00:27:17;15.70;99.90
44513;DHT22;30219;50.588;9.504;2022-07-24T00:29:43;15.80;99.90
44513;DHT22;30219;50.588;9.504;2022-07-24T00:32:09;15.80;99.90
44513;DHT22;30219;50.588;9.504;2022-07-24T00:34:34;15.70;99.90
44513;DHT22;30219;50.588;9.504;2022-07-24T00:37:00;15.60;99.90
44513;DHT22;30219;50.588;9.504;2022-07-24T00:39:25;15.60;99.90
44513;DHT22;30219;50.588;9.504;2022-07-24T00:41:51;15.50;99.90
44513;DHT22;30219;50.588;9.504;2022-07-24T00:44:20;15.50;99.90
44513;DHT22;30219;50.588;9.504;2022-07-24T00:46:47;15.50;99.90
44513;DHT22;30219;50.588;9.504;2022-07-24T00:49:15;15.40;99.90
44513;DHT22;30219;50.588;9.504;2022-07-24T00:51:43;15.20;99.90
44513;DHT22;30219;50.588;9.504;2022-07-24T00:54:11;15.20;99.90
44513;DHT22;30219;50.588;9.504;2022-07-24T00:56:37;15.10;99.90
44513;DHT22;30219;50.588;9.504;2022-07-24T00:59:04;15.10;99.90
44513;DHT22;30219;50.588;9.504;2022-07-24T01:01:30;15.20;99.90
44513;DHT22;30219;50.588;9.504;2022-07-24T01:03:57;15.20;99.90
44513;DHT22;30219;50.588;9.504;2022-07-24T01:06:23;15.10;99.90
44513;DHT22;30219;50.588;9.504;2022-07-24T01:08:50;15.00;99.90
44513;DHT22;30219;50.588;9.504;2022-07-24T01:11:15;14.90;99.90
44513;DHT22;30219;50.588;9.504;2022-07-24T01:13:41;14.90;99.90
44513;DHT22;30219;50.588;9.504;2022-07-24T01:16:08;14.80;99.90
44513;DHT22;30219;50.588;9.504;2022-07-24T01:18:34;14.80;99.90
44513;DHT22;30219;50.588;9.504;2022-07-24T01:21:00;14.80;99.90
44513;DHT22;30219;50.588;9.504;2022-07-24T01:23:26;14.90;99.90
44513;DHT22;30219;50.588;9.504;2022-07-24T01:25:51;14.90;99.90
44513;DHT22;30219;50.588;9.504;2022-07-24T01:28:17;14.70;99.90
44513;DHT22;30219;50.588;9.504;2022-07-24T01:30:44;14.60;99.90
44513;DHT22;30219;50.588;9.504;2022-07-24T01:33:09;14.50;99.90
44513;DHT22;30219;50.588;9.504;2022-07-24T01:35:35;14.50;99.90
44513;DHT22;30219;50.588;9.504;2022-07-24T01:38:01;14.60;99.90
44513;DHT22;30219;50.588;9.504;2022-07-24T01:40:26;14.40;99.90
44513;DHT22;30219;50.588;9.504;2022-07-24T01:42:52;14.30;99.90
44513;DHT22;30219;50.588;9.504;2022-07-24T01:45:18;14.30;99.90
44513;DHT22;30219;50.588;9.504;2022-07-24T01:47:44;14.30;99.90
44513;DHT22;30219;50.588;9.504;2022-07-24T01:50:11;14.30;99.90
44513;DHT22;30219;50.588;9.504;2022-07-24T01:52:38;14.40;99.90
44513;DHT22;30219;50.588;9.504;2022-07-24T01:55:04;14.30;99.90
44513;DHT22;30219;50.588;9.504;2022-07-24T01:57:30;14.20;99.90
44513;DHT22;30219;50.588;9.504;2022-07-24T01:59:56;14.10;99.90
44513;DHT22;30219;50.588;9.504;2022-07-24T02:02:22;14.10;99.90
44513;DHT22;30219;50.588;9.504;2022-07-24T02:04:48;14.10;99.90
44513;DHT22;30219;50.588;9.504;2022-07-24T02:07:13;14.10;99.90
44513;DHT22;30219;50.588;9.504;2022-07-24T02:09:39;14.10;99.90
44513;DHT22;30219;50.588;9.504;2022-07-24T02:12:05;14.00;99.90
44513;DHT22;30219;50.588;9.504;2022-07-24T02:14:30;13.90;99.90
44513;DHT22;30219;50.588;9.504;2022-07-24T02:16:56;13.90;99.90
44513;DHT22;30219;50.588;9.504;2022-07-24T02:19:21;13.90;99.90
44513;DHT22;30219;50.588;9.504;2022-07-24T02:21:48;13.90;99.90
44513;DHT22;30219;50.588;9.504;2022-07-24T02:24:14;13.90;99.90
44513;DHT22;30219;50.588;9.504;2022-07-24T02:26:39;13.90;99.90
44513;DHT22;30219;50.588;9.504;2022-07-24T02:29:05;13.90;99.90
44513;DHT22;30219;50.588;9.504;2022-07-24T02:31:31;13.80;99.90
44513;DHT22;30219;50.588;9.504;2022-07-24T02:33:56;13.80;99.90
44513;DHT22;30219;50.588;9.504;2022-07-24T02:36:22;13.60;99.90
44513;DHT22;30219;50.588;9.504;2022-07-24T02:38:47;13.50;99.90
44513;DHT22;30219;50.588;9.504;2022-07-24T02:41:13;13.50;99.90
44513;DHT22;30219;50.588;9.504;2022-07-24T02:43:39;13.60;99.90
44513;DHT22;30219;50.588;9.504;2022-07-24T02:46:05;13.60;99.90
44513;DHT22;30219;50.588;9.504;2022-07-24T02:48:30;13.70;99.90
44513;DHT22;30219;50.588;9.504;2022-07-24T02:50:56;13.60;99.90
44513;DHT22;30219;50.588;9.504;2022-07-24T02:53:21;13.60;99.90
44513;DHT22;30219;50.588;9.504;2022-07-24T02:55:47;13.60;99.90
44513;DHT22;30219;50.588;9.504;2022-07-24T02:58:12;13.60;99.90
44513;DHT22;30219;50.588;9.504;2022-07-24T03:00:38;13.50;99.90
44513;DHT22;30219;50.588;9.504;2022-07-24T03:03:04;13.30;99.90
44513;DHT22;30219;50.588;9.504;2022-07-24T03:05:29;13.30;99.90
44513;DHT22;30219;50.588;9.504;2022-07-24T03:07:55;13.30;99.90
44513;DHT22;30219;50.588;9.504;2022-07-24T03:10:21;13.30;99.90
44513;DHT22;30219;50.588;9.504;2022-07-24T03:12:46;13.40;99.90
44513;DHT22;30219;50.588;9.504;2022-07-24T03:15:13;13.40;99.90
44513;DHT22;30219;50.588;9.504;2022-07-24T03:17:39;13.40;99.90
44513;DHT22;30219;50.588;9.504;2022-07-24T03:20:05;13.30;99.90
44513;DHT22;30219;50.588;9.504;2022-07-24T03:22:31;13.30;99.90
44513;DHT22;30219;50.588;9.504;2022-07-24T03:24:57;13.20;99.90
44513;DHT22;30219;50.588;9.504;2022-07-24T03:27:22;13.30;99.90
44513;DHT22;30219;50.588;9.504;2022-07-24T03:29:48;13.30;99.90
44513;DHT22;30219;50.588;9.504;2022-07-24T03:32:14;13.40;99.90
44513;DHT22;30219;50.588;9.504;2022-07-24T03:34:39;13.40;99.90
44513;DHT22;30219;50.588;9.504;2022-07-24T03:37:05;13.40;99.90
44513;DHT22;30219;50.588;9.504;2022-07-24T03:39:30;13.50;99.90
44513;DHT22;30219;50.588;9.504;2022-07-24T03:41:56;13.50;99.90
44513;DHT22;30219;50.588;9.504;2022-07-24T03:44:22;13.60;99.90
44513;DHT22;30219;50.588;9.504;2022-07-24T03:46:47;13.70;99.90
44513;DHT22;30219;50.588;9.504;2022-07-24T03:49:13;13.70;99.90
44513;DHT22;30219;50.588;9.504;2022-07-24T03:51:38;13.70;99.90
44513;DHT22;30219;50.588;9.504;2022-07-24T03:54:04;13.60;99.90
44513;DHT22;30219;50.588;9.504;2022-07-24T03:56:30;13.60;99.90
44513;DHT22;30219;50.588;9.504;2022-07-24T03:58:56;13.60;99.90
44513;DHT22;30219;50.588;9.504;2022-07-24T04:01:22;13.50;99.90
44513;DHT22;30219;50.588;9.504;2022-07-24T04:03:47;13.50;99.90
44513;DHT22;30219;50.588;9.504;2022-07-24T04:06:13;13.50;99.90
44513;DHT22;30219;50.588;9.504;2022-07-24T04:08:39;13.40;99.90
44513;DHT22;30219;50.588;9.504;2022-07-24T04:11:05;13.40;99.90
44513;DHT22;30219;50.588;9.504;2022-07-24T04:13:33;13.40;99.90
44513;DHT22;30219;50.588;9.504;2022-07-24T04:15:58;13.40;99.90
44513;DHT22;30219;50.588;9.504;2022-07-24T04:18:24;13.30;99.90
44513;DHT22;30219;50.588;9.504;2022-07-24T04:20:50;13.30;99.90
44513;DHT22;30219;50.588;9.504;2022-07-24T04:23:16;13.40;99.90
44513;DHT22;30219;50.588;9.504;2022-07-24T04:25:42;13.40;99.90
44513;DHT22;30219;50.588;9.504;2022-07-24T04:28:08;13.50;99.90
44513;DHT22;30219;50.588;9.504;2022-07-24T04:30:33;13.60;99.90
44513;DHT22;30219;50.588;9.504;2022-07-24T04:32:59;13.70;99.90
44513;DHT22;30219;50.588;9.504;2022-07-24T04:35:25;13.80;99.90
44513;DHT22;30219;50.588;9.504;2022-07-24T04:37:50;13.80;99.90
44513;DHT22;30219;50.588;9.504;2022-07-24T04:40:16;13.90;99.90
44513;DHT22;30219;50.588;9.504;2022-07-24T04:42:42;14.00;99.90
44513;DHT22;30219;50.588;9.504;2022-07-24T04:45:08;14.20;99.90
44513;DHT22;30219;50.588;9.504;2022-07-24T04:47:35;14.40;99.90
44513;DHT22;30219;50.588;9.504;2022-07-24T04:50:01;14.50;99.90
44513;DHT22;30219;50.588;9.504;2022-07-24T04:52:27;14.70;99.90
44513;DHT22;30219;50.588;9.504;2022-07-24T04:54:53;14.70;99.90
44513;DHT22;30219;50.588;9.504;2022-07-24T04:57:18;14.60;99.90
44513;DHT22;30219;50.588;9.504;2022-07-24T04:59:44;14.50;99.90
44513;DHT22;30219;50.588;9.504;2022-07-24T05:02:10;14.70;99.90
44513;DHT22;30219;50.588;9.504;2022-07-24T05:04:36;14.90;99.90
44513;DHT22;30219;50.588;9.504;2022-07-24T05:07:02;15.10;99.90
44513;DHT22;30219;50.588;9.504;2022-07-24T05:09:28;15.40;99.90
44513;DHT22;30219;50.588;9.504;2022-07-24T05:11:54;15.70;99.90
44513;DHT22;30219;50.588;9.504;2022-07-24T05:14:19;15.90;99.90
44513;DHT22;30219;50.588;9.504;2022-07-24T05:16:45;16.20;99.90
44513;DHT22;30219;50.588;9.504;2022-07-24T05:19:11;16.50;99.90
44513;DHT22;30219;50.588;9.504;2022-07-24T05:21:37;16.80;99.90
44513;DHT22;30219;50.588;9.504;2022-07-24T05:24:03;17.00;99.90
44513;DHT22;30219;50.588;9.504;2022-07-24T05:26:29;17.30;99.90
44513;DHT22;30219;50.588;9.504;2022-07-24T05:29:00;17.50;99.90
44513;DHT22;30219;50.588;9.504;2022-07-24T05:31:26;17.60;99.90
44513;DHT22;30219;50.588;9.504;2022-07-24T05:33:52;17.60;99.90
44513;DHT22;30219;50.588;9.504;2022-07-24T05:36:18;18.00;99.90
44513;DHT22;30219;50.588;9.504;2022-07-24T05:38:44;18.30;99.90
44513;DHT22;30219;50.588;9.504;2022-07-24T05:41:11;18.60;99.90
44513;DHT22;30219;50.588;9.504;2022-07-24T05:43:37;18.90;99.90
44513;DHT22;30219;50.588;9.504;2022-07-24T05:46:03;19.20;99.90
44513;DHT22;30219;50.588;9.504;2022-07-24T05:48:29;19.50;99.90
44513;DHT22;30219;50.588;9.504;2022-07-24T05:50:54;19.90;99.90
44513;DHT22;30219;50.588;9.504;2022-07-24T05:53:20;20.20;99.90
44513;DHT22;30219;50.588;9.504;2022-07-24T05:55:46;20.50;99.90
44513;DHT22;30219;50.588;9.504;2022-07-24T05:58:12;20.70;99.90
44513;DHT22;30219;50.588;9.504;2022-07-24T06:00:37;21.00;99.90
44513;DHT22;30219;50.588;9.504;2022-07-24T06:03:03;21.20;99.90
44513;DHT22;30219;50.588;9.504;2022-07-24T06:05:28;21.40;99.50
44513;DHT22;30219;50.588;9.504;2022-07-24T06:07:54;21.50;99.10
44513;DHT22;30219;50.588;9.504;2022-07-24T06:10:20;21.60;98.40
44513;DHT22;30219;50.588;9.504;2022-07-24T06:12:45;21.40;98.30
44513;DHT22;30219;50.588;9.504;2022-07-24T06:15:11;21.60;98.50
44513;DHT22;30219;50.588;9.504;2022-07-24T06:17:37;21.80;98.00
44513;DHT22;30219;50.588;9.504;2022-07-24T06:20:04;21.90;97.80
44513;DHT22;30219;50.588;9.504;2022-07-24T06:22:30;22.20;97.80
44513;DHT22;30219;50.588;9.504;2022-07-24T06:24:56;22.60;97.30
44513;DHT22;30219;50.588;9.504;2022-07-24T06:27:22;22.80;96.70
44513;DHT22;30219;50.588;9.504;2022-07-24T06:29:47;23.00;96.40
44513;DHT22;30219;50.588;9.504;2022-07-24T06:32:13;23.50;95.30
44513;DHT22;30219;50.588;9.504;2022-07-24T06:34:38;23.70;95.50
44513;DHT22;30219;50.588;9.504;2022-07-24T06:37:04;24.20;94.60
44513;DHT22;30219;50.588;9.504;2022-07-24T06:39:29;24.50;94.50
44513;DHT22;30219;50.588;9.504;2022-07-24T06:41:55;24.80;93.70
44513;DHT22;30219;50.588;9.504;2022-07-24T06:44:21;25.10;93.40
44513;DHT22;30219;50.588;9.504;2022-07-24T06:46:48;25.20;92.80
44513;DHT22;30219;50.588;9.504;2022-07-24T06:49:13;25.30;92.10
44513;DHT22;30219;50.588;9.504;2022-07-24T06:51:39;25.30;92.00
44513;DHT22;30219;50.588;9.504;2022-07-24T06:54:05;25.40;92.10
44513;DHT22;30219;50.588;9.504;2022-07-24T06:56:31;25.70;91.60
44513;DHT22;30219;50.588;9.504;2022-07-24T06:58:56;25.90;91.30
44513;DHT22;30219;50.588;9.504;2022-07-24T07:01:22;26.00;91.50
44513;DHT22;30219;50.588;9.504;2022-07-24T07:03:54;26.40;91.00
44513;DHT22;30219;50.588;9.504;2022-07-24T07:06:20;26.50;91.00
44513;DHT22;30219;50.588;9.504;2022-07-24T07:08:46;26.50;90.60
44513;DHT22;30219;50.588;9.504;2022-07-24T07:11:12;26.80;90.70
44513;DHT22;30219;50.588;9.504;2022-07-24T07:13:37;27.10;90.30
44513;DHT22;30219;50.588;9.504;2022-07-24T07:16:03;27.10;90.10
44513;DHT22;30219;50.588;9.504;2022-07-24T07:18:29;27.10;89.50
44513;DHT22;30219;50.588;9.504;2022-07-24T07:20:54;27.20;89.60
44513;DHT22;30219;50.588;9.504;2022-07-24T07:23:25;27.20;87.80
44513;DHT22;30219;50.588;9.504;2022-07-24T07:25:54;27.00;86.90
44513;DHT22;30219;50.588;9.504;2022-07-24T07:28:20;26.90;86.50
44513;DHT22;30219;50.588;9.504;2022-07-24T07:30:46;27.10;86.20
44513;DHT22;30219;50.588;9.504;2022-07-24T07:33:11;27.30;85.80
44513;DHT22;30219;50.588;9.504;2022-07-24T07:35:37;27.40;84.50
44513;DHT22;30219;50.588;9.504;2022-07-24T07:38:02;27.30;84.40
44513;DHT22;30219;50.588;9.504;2022-07-24T07:40:28;27.60;83.50
44513;DHT22;30219;50.588;9.504;2022-07-24T07:42:54;27.50;83.40
44513;DHT22;30219;50.588;9.504;2022-07-24T07:45:19;27.30;84.10
44513;DHT22;30219;50.588;9.504;2022-07-24T07:47:45;27.80;83.00
44513;DHT22;30219;50.588;9.504;2022-07-24T07:50:11;28.20;82.60
44513;DHT22;30219;50.588;9.504;2022-07-24T07:52:37;28.50;80.00
44513;DHT22;30219;50.588;9.504;2022-07-24T07:55:03;28.50;79.80
44513;DHT22;30219;50.588;9.504;2022-07-24T07:57:30;28.60;78.10
44513;DHT22;30219;50.588;9.504;2022-07-24T07:59:55;28.70;80.70
44513;DHT22;30219;50.588;9.504;2022-07-24T08:02:21;28.90;80.60
44513;DHT22;30219;50.588;9.504;2022-07-24T08:04:47;29.50;80.50
44513;DHT22;30219;50.588;9.504;2022-07-24T08:07:12;30.10;78.20
44513;DHT22;30219;50.588;9.504;2022-07-24T08:09:38;30.50;76.80
44513;DHT22;30219;50.588;9.504;2022-07-24T08:12:04;30.40;74.70
44513;DHT22;30219;50.588;9.504;2022-07-24T08:14:30;30.20;74.90
44513;DHT22;30219;50.588;9.504;2022-07-24T08:16:56;30.30;74.30
44513;DHT22;30219;50.588;9.504;2022-07-24T08:19:22;30.40;73.60
44513;DHT22;30219;50.588;9.504;2022-07-24T08:21:47;30.20;73.70
44513;DHT22;30219;50.588;9.504;2022-07-24T08:24:13;30.40;73.90
44513;DHT22;30219;50.588;9.504;2022-07-24T08:26:49;30.10;74.10
44513;DHT22;30219;50.588;9.504;2022-07-24T08:29:15;29.90;74.50
44513;DHT22;30219;50.588;9.504;2022-07-24T08:31:41;30.10;74.00
44513;DHT22;30219;50.588;9.504;2022-07-24T08:34:06;29.90;73.20
44513;DHT22;30219;50.588;9.504;2022-07-24T08:36:32;30.50;73.40
44513;DHT22;30219;50.588;9.504;2022-07-24T08:38:57;31.00;72.30
44513;DHT22;30219;50.588;9.504;2022-07-24T08:41:23;30.80;71.80
44513;DHT22;30219;50.588;9.504;2022-07-24T08:43:49;31.10;72.40
44513;DHT22;30219;50.588;9.504;2022-07-24T08:46:15;31.40;71.40
44513;DHT22;30219;50.588;9.504;2022-07-24T08:48:45;31.10;70.50
44513;DHT22;30219;50.588;9.504;2022-07-24T08:51:14;31.30;71.10
44513;DHT22;30219;50.588;9.504;2022-07-24T08:53:40;32.20;70.10
44513;DHT22;30219;50.588;9.504;2022-07-24T08:56:06;31.50;69.20
44513;DHT22;30219;50.588;9.504;2022-07-24T08:58:36;31.10;69.80
44513;DHT22;30219;50.588;9.504;2022-07-24T09:01:02;31.00;69.70
44513;DHT22;30219;50.588;9.504;2022-07-24T09:03:28;31.30;68.90
44513;DHT22;30219;50.588;9.504;2022-07-24T09:05:55;31.30;68.50
44513;DHT22;30219;50.588;9.504;2022-07-24T09:08:21;31.00;69.40
44513;DHT22;30219;50.588;9.504;2022-07-24T09:10:58;31.10;68.50
44513;DHT22;30219;50.588;9.504;2022-07-24T09:13:32;31.40;68.80
44513;DHT22;30219;50.588;9.504;2022-07-24T09:16:23;32.00;68.40
44513;DHT22;30219;50.588;9.504;2022-07-24T09:19:10;32.80;67.20
44513;DHT22;30219;50.588;9.504;2022-07-24T09:21:38;33.30;65.80
44513;DHT22;30219;50.588;9.504;2022-07-24T09:24:15;33.60;65.90
44513;DHT22;30219;50.588;9.504;2022-07-24T09:26:53;33.70;64.50
44513;DHT22;30219;50.588;9.504;2022-07-24T09:29:20;32.70;64.40
44513;DHT22;30219;50.588;9.504;2022-07-24T09:34:15;32.00;66.00
44513;DHT22;30219;50.588;9.504;2022-07-24T09:36:41;32.00;65.90
44513;DHT22;30219;50.588;9.504;2022-07-24T09:39:07;31.90;66.30
44513;DHT22;30219;50.588;9.504;2022-07-24T09:41:32;31.60;66.00
44513;DHT22;30219;50.588;9.504;2022-07-24T09:44:01;31.40;67.30
44513;DHT22;30219;50.588;9.504;2022-07-24T09:46:28;31.90;65.90
44513;DHT22;30219;50.588;9.504;2022-07-24T09:48:57;32.50;66.20
44513;DHT22;30219;50.588;9.504;2022-07-24T09:51:25;32.90;66.10
44513;DHT22;30219;50.588;9.504;2022-07-24T09:53:58;33.20;65.20
44513;DHT22;30219;50.588;9.504;2022-07-24T09:56:25;33.40;64.60
44513;DHT22;30219;50.588;9.504;2022-07-24T09:58:52;33.40;64.50
44513;DHT22;30219;50.588;9.504;2022-07-24T10:01:21;33.90;65.20
44513;DHT22;30219;50.588;9.504;2022-07-24T10:03:48;34.40;64.70
44513;DHT22;30219;50.588;9.504;2022-07-24T10:06:17;34.90;64.30
44513;DHT22;30219;50.588;9.504;2022-07-24T10:08:44;34.90;63.30
44513;DHT22;30219;50.588;9.504;2022-07-24T10:11:11;35.20;63.20
44513;DHT22;30219;50.588;9.504;2022-07-24T10:13:37;35.70;63.00
44513;DHT22;30219;50.588;9.504;2022-07-24T10:18:52;36.30;61.60
44513;DHT22;30219;50.588;9.504;2022-07-24T10:21:21;36.50;60.70
44513;DHT22;30219;50.588;9.504;2022-07-24T10:26:38;36.60;60.10
44513;DHT22;30219;50.588;9.504;2022-07-24T10:29:20;36.90;60.60
44513;DHT22;30219;50.588;9.504;2022-07-24T10:31:48;37.20;60.00
44513;DHT22;30219;50.588;9.504;2022-07-24T10:39:57;37.40;59.10
44513;DHT22;30219;50.588;9.504;2022-07-24T10:42:24;36.80;57.90
44513;DHT22;30219;50.588;9.504;2022-07-24T10:45:18;36.50;58.10
44513;DHT22;30219;50.588;9.504;2022-07-24T10:47:45;36.10;59.00
44513;DHT22;30219;50.588;9.504;2022-07-24T10:50:11;35.90;59.10
44513;DHT22;30219;50.588;9.504;2022-07-24T10:52:37;36.10;59.30
44513;DHT22;30219;50.588;9.504;2022-07-24T11:00:41;34.70;59.20
44513;DHT22;30219;50.588;9.504;2022-07-24T11:06:07;34.20;60.10
44513;DHT22;30219;50.588;9.504;2022-07-24T11:08:53;33.40;60.80
44513;DHT22;30219;50.588;9.504;2022-07-24T11:11:21;33.30;60.50
44513;DHT22;30219;50.588;9.504;2022-07-24T11:13:52;33.80;60.70
44513;DHT22;30219;50.588;9.504;2022-07-24T11:16:22;34.20;61.60
44513;DHT22;30219;50.588;9.504;2022-07-24T11:24:26;34.10;59.50
44513;DHT22;30219;50.588;9.504;2022-07-24T11:27:07;33.40;60.10
44513;DHT22;30219;50.588;9.504;2022-07-24T11:29:39;33.10;60.90
44513;DHT22;30219;50.588;9.504;2022-07-24T11:32:10;33.60;62.30
44513;DHT22;30219;50.588;9.504;2022-07-24T11:34:47;34.40;60.90
44513;DHT22;30219;50.588;9.504;2022-07-24T11:37:13;35.10;59.30
44513;DHT22;30219;50.588;9.504;2022-07-24T11:39:40;35.00;57.50
44513;DHT22;30219;50.588;9.504;2022-07-24T11:42:08;33.60;58.80
44513;DHT22;30219;50.588;9.504;2022-07-24T11:44:46;33.10;60.10
44513;DHT22;30219;50.588;9.504;2022-07-24T11:47:13;33.50;60.60
44513;DHT22;30219;50.588;9.504;2022-07-24T11:52:14;34.80;59.60
44513;DHT22;30219;50.588;9.504;2022-07-24T11:54:40;35.40;59.70
44513;DHT22;30219;50.588;9.504;2022-07-24T11:57:16;35.60;58.80
44513;DHT22;30219;50.588;9.504;2022-07-24T11:59:42;36.20;59.30
44513;DHT22;30219;50.588;9.504;2022-07-24T12:02:09;36.40;58.50
44513;DHT22;30219;50.588;9.504;2022-07-24T12:04:37;36.50;57.60
44513;DHT22;30219;50.588;9.504;2022-07-24T12:07:11;36.30;57.30
44513;DHT22;30219;50.588;9.504;2022-07-24T12:12:27;36.60;57.70
44513;DHT22;30219;50.588;9.504;2022-07-24T12:15:09;36.00;56.80
44513;DHT22;30219;50.588;9.504;2022-07-24T12:20:35;34.60;58.40
44513;DHT22;30219;50.588;9.504;2022-07-24T12:23:03;34.20;57.40
44513;DHT22;30219;50.588;9.504;2022-07-24T12:25:30;34.20;57.80
44513;DHT22;30219;50.588;9.504;2022-07-24T12:28:16;34.20;57.80
44513;DHT22;30219;50.588;9.504;2022-07-24T12:30:51;33.80;58.10
44513;DHT22;30219;50.588;9.504;2022-07-24T12:33:21;34.10;58.20
44513;DHT22;30219;50.588;9.504;2022-07-24T12:40:50;32.30;59.10
44513;DHT22;30219;50.588;9.504;2022-07-24T12:43:16;31.80;59.80
44513;DHT22;30219;50.588;9.504;2022-07-24T12:45:42;31.60;60.60
44513;DHT22;30219;50.588;9.504;2022-07-24T12:48:19;31.50;60.40
44513;DHT22;30219;50.588;9.504;2022-07-24T12:51:04;31.60;60.40
44513;DHT22;30219;50.588;9.504;2022-07-24T12:53:32;31.40;60.40
44513;DHT22;30219;50.588;9.504;2022-07-24T12:56:23;31.00;60.30
44513;DHT22;30219;50.588;9.504;2022-07-24T12:58:56;30.70;60.70
44513;DHT22;30219;50.588;9.504;2022-07-24T13:01:24;30.70;60.60
44513;DHT22;30219;50.588;9.504;2022-07-24T13:03:58;30.70;60.60
44513;DHT22;30219;50.588;9.504;2022-07-24T13:06:34;30.80;61.90
44513;DHT22;30219;50.588;9.504;2022-07-24T13:09:00;31.10;61.20
44513;DHT22;30219;50.588;9.504;2022-07-24T13:11:26;31.00;61.50
44513;DHT22;30219;50.588;9.504;2022-07-24T13:13:51;30.70;60.50
44513;DHT22;30219;50.588;9.504;2022-07-24T13:16:17;31.00;61.20
44513;DHT22;30219;50.588;9.504;2022-07-24T13:18:44;31.20;60.40
44513;DHT22;30219;50.588;9.504;2022-07-24T13:21:10;31.40;60.70
44513;DHT22;30219;50.588;9.504;2022-07-24T13:23:35;31.10;60.40
44513;DHT22;30219;50.588;9.504;2022-07-24T13:26:01;31.10;60.50
44513;DHT22;30219;50.588;9.504;2022-07-24T13:28:26;31.50;60.70
44513;DHT22;30219;50.588;9.504;2022-07-24T13:30:52;32.10;59.60
44513;DHT22;30219;50.588;9.504;2022-07-24T13:33:17;32.80;59.50
44513;DHT22;30219;50.588;9.504;2022-07-24T13:35:43;33.20;59.00
44513;DHT22;30219;50.588;9.504;2022-07-24T13:38:08;32.40;58.10
44513;DHT22;30219;50.588;9.504;2022-07-24T13:40:34;32.10;59.20
44513;DHT22;30219;50.588;9.504;2022-07-24T13:42:59;31.60;59.30
44513;DHT22;30219;50.588;9.504;2022-07-24T13:45:25;31.30;59.00
44513;DHT22;30219;50.588;9.504;2022-07-24T13:47:51;31.30;59.60
44513;DHT22;30219;50.588;9.504;2022-07-24T13:50:16;31.50;59.10
44513;DHT22;30219;50.588;9.504;2022-07-24T13:52:42;31.50;58.60
44513;DHT22;30219;50.588;9.504;2022-07-24T13:55:07;31.80;59.10
44513;DHT22;30219;50.588;9.504;2022-07-24T13:57:33;32.10;57.90
44513;DHT22;30219;50.588;9.504;2022-07-24T13:59:59;32.30;58.00
44513;DHT22;30219;50.588;9.504;2022-07-24T14:02:24;32.30;57.90
44513;DHT22;30219;50.588;9.504;2022-07-24T14:04:50;32.50;57.60
44513;DHT22;30219;50.588;9.504;2022-07-24T14:07:16;33.00;58.60
44513;DHT22;30219;50.588;9.504;2022-07-24T14:09:41;33.30;58.20
44513;DHT22;30219;50.588;9.504;2022-07-24T14:12:07;33.70;57.40
44513;DHT22;30219;50.588;9.504;2022-07-24T14:14:33;33.60;56.50
44513;DHT22;30219;50.588;9.504;2022-07-24T14:16:59;34.00;57.10
44513;DHT22;30219;50.588;9.504;2022-07-24T14:19:25;34.30;56.20
44513;DHT22;30219;50.588;9.504;2022-07-24T14:21:51;33.40;56.10
44513;DHT22;30219;50.588;9.504;2022-07-24T14:24:18;32.70;57.30
44513;DHT22;30219;50.588;9.504;2022-07-24T14:26:45;32.20;58.00
44513;DHT22;30219;50.588;9.504;2022-07-24T14:29:11;32.50;58.00
44513;DHT22;30219;50.588;9.504;2022-07-24T14:31:37;33.10;57.10
44513;DHT22;30219;50.588;9.504;2022-07-24T14:34:03;32.80;58.20
44513;DHT22;30219;50.588;9.504;2022-07-24T14:36:28;32.90;57.40
44513;DHT22;30219;50.588;9.504;2022-07-24T14:38:54;33.20;57.50
44513;DHT22;30219;50.588;9.504;2022-07-24T14:41:20;33.70;57.20
44513;DHT22;30219;50.588;9.504;2022-07-24T14:43:45;33.90;55.30
44513;DHT22;30219;50.588;9.504;2022-07-24T14:46:11;34.10;55.40
44513;DHT22;30219;50.588;9.504;2022-07-24T14:48:37;33.90;55.50
44513;DHT22;30219;50.588;9.504;2022-07-24T14:51:02;34.20;55.80
44513;DHT22;30219;50.588;9.504;2022-07-24T14:53:28;34.30;55.90
44513;DHT22;30219;50.588;9.504;2022-07-24T14:55:54;34.00;55.70
44513;DHT22;30219;50.588;9.504;2022-07-24T14:58:19;34.00;57.10
44513;DHT22;30219;50.588;9.504;2022-07-24T15:00:45;33.60;56.20
44513;DHT22;30219;50.588;9.504;2022-07-24T15:03:11;33.30;56.80
44513;DHT22;30219;50.588;9.504;2022-07-24T15:05:37;33.20;57.00
44513;DHT22;30219;50.588;9.504;2022-07-24T15:08:03;32.70;57.10
44513;DHT22;30219;50.588;9.504;2022-07-24T15:10:29;32.70;56.80
44513;DHT22;30219;50.588;9.504;2022-07-24T15:12:54;33.10;56.80
44513;DHT22;30219;50.588;9.504;2022-07-24T15:15:20;32.90;57.60
44513;DHT22;30219;50.588;9.504;2022-07-24T15:17:45;32.30;57.10
44513;DHT22;30219;50.588;9.504;2022-07-24T15:20:11;32.20;57.90
44513;DHT22;30219;50.588;9.504;2022-07-24T15:22:37;32.20;56.80
44513;DHT22;30219;50.588;9.504;2022-07-24T15:25:02;32.30;57.80
44513;DHT22;30219;50.588;9.504;2022-07-24T15:27:28;32.10;57.80
44513;DHT22;30219;50.588;9.504;2022-07-24T15:29:54;32.60;57.90
44513;DHT22;30219;50.588;9.504;2022-07-24T15:32:19;32.70;56.80
44513;DHT22;30219;50.588;9.504;2022-07-24T15:34:45;32.10;57.80
44513;DHT22;30219;50.588;9.504;2022-07-24T15:37:10;32.10;57.80
44513;DHT22;30219;50.588;9.504;2022-07-24T15:39:36;32.50;57.60
44513;DHT22;30219;50.588;9.504;2022-07-24T15:42:02;32.80;57.20
44513;DHT22;30219;50.588;9.504;2022-07-24T15:44:27;32.80;57.30
44513;DHT22;30219;50.588;9.504;2022-07-24T15:46:53;33.10;56.80
44513;DHT22;30219;50.588;9.504;2022-07-24T15:49:18;33.30;56.50
44513;DHT22;30219;50.588;9.504;2022-07-24T15:51:44;33.60;56.90
44513;DHT22;30219;50.588;9.504;2022-07-24T15:54:10;33.60;56.80
44513;DHT22;30219;50.588;9.504;2022-07-24T15:56:36;32.90;56.50
44513;DHT22;30219;50.588;9.504;2022-07-24T15:59:01;32.20;57.00
44513;DHT22;30219;50.588;9.504;2022-07-24T16:01:27;32.20;57.30
44513;DHT22;30219;50.588;9.504;2022-07-24T16:03:53;32.60;56.60
44513;DHT22;30219;50.588;9.504;2022-07-24T16:06:18;32.80;56.90
44513;DHT22;30219;50.588;9.504;2022-07-24T16:08:44;32.60;56.20